createdAt,value
2019-02-08T00:02:32.054Z,93.86
2019-02-08T00:05:05.655Z,93.78
2019-02-08T00:07:38.329Z,93.76
2019-02-08T00:10:11.381Z,93.71
2019-02-08T00:12:44.296Z,93.83
2019-02-08T00:15:18.349Z,93.86
2019-02-08T00:17:51.360Z,93.86
2019-02-08T00:20:24.398Z,93.70
2019-02-08T00:22:57.267Z,93.45
2019-02-08T00:25:29.928Z,93.53
2019-02-08T00:28:03.493Z,93.76
2019-02-08T00:30:36.132Z,93.78
2019-02-08T00:33:08.861Z,93.90
2019-02-08T00:35:41.850Z,93.87
2019-02-08T00:38:14.686Z,93.79
2019-02-08T00:40:47.707Z,93.75
2019-02-08T00:43:20.439Z,93.79
2019-02-08T00:45:55.227Z,93.54
2019-02-08T00:48:27.893Z,93.37
2019-02-08T00:51:00.510Z,93.34
2019-02-08T00:53:33.640Z,93.50
2019-02-08T00:56:07.207Z,93.54
2019-02-08T00:58:39.925Z,93.64
2019-02-08T01:01:12.758Z,93.65
2019-02-08T01:03:45.381Z,93.68
2019-02-08T01:06:18.014Z,93.67
2019-02-08T01:08:50.697Z,93.68
2019-02-08T01:11:23.416Z,93.74
2019-02-08T01:13:56.114Z,93.83
2019-02-08T01:16:29.303Z,93.91
2019-02-08T01:19:01.984Z,93.98
2019-02-08T01:21:34.525Z,93.91
2019-02-08T01:24:07.532Z,93.83
2019-02-08T01:26:40.184Z,93.90
2019-02-08T01:29:12.977Z,93.89
2019-02-08T01:31:45.800Z,93.97
2019-02-08T01:34:18.421Z,94.04
2019-02-08T01:36:51.076Z,93.81
2019-02-08T01:39:23.741Z,93.87
2019-02-08T01:41:56.405Z,93.93
2019-02-08T01:44:29.210Z,93.90
2019-02-08T01:47:02.026Z,93.82
2019-02-08T01:49:34.679Z,94.08
2019-02-08T01:52:07.423Z,94.00
2019-02-08T01:54:40.053Z,93.66
2019-02-08T01:57:12.747Z,93.46
2019-02-08T01:59:45.384Z,93.41
2019-02-08T02:02:18.090Z,93.38
2019-02-08T02:04:50.707Z,93.44
2019-02-08T02:07:23.302Z,93.42
2019-02-08T02:09:56.077Z,93.41
2019-02-08T02:12:28.744Z,93.36
2019-02-08T02:15:01.410Z,93.41
2019-02-08T02:17:33.985Z,93.40
2019-02-08T02:20:08.880Z,93.40
2019-02-08T02:22:41.443Z,93.38
2019-02-08T02:25:15.046Z,93.35
2019-02-08T02:27:47.681Z,93.12
2019-02-08T02:30:27.341Z,92.97
2019-02-08T02:33:00.078Z,92.98
2019-02-08T02:35:33.054Z,92.89
2019-02-08T02:38:05.954Z,92.94
2019-02-08T02:40:38.503Z,92.95
2019-02-08T02:43:11.591Z,93.01
2019-02-08T02:45:44.790Z,92.92
2019-02-08T02:48:17.339Z,92.98
2019-02-08T02:50:50.049Z,92.93
2019-02-08T02:53:22.931Z,92.73
2019-02-08T02:55:55.515Z,92.61
2019-02-08T02:58:28.274Z,92.52
2019-02-08T03:01:00.840Z,92.58
2019-02-08T03:03:33.574Z,92.60
2019-02-08T03:06:06.377Z,92.69
2019-02-08T03:08:39.724Z,92.64
2019-02-08T03:11:12.572Z,92.66
2019-02-08T03:13:45.274Z,92.75
2019-02-08T03:16:17.921Z,92.82
2019-02-08T03:18:50.661Z,92.64
2019-02-08T03:21:23.325Z,92.66
2019-02-08T03:23:56.113Z,92.72
2019-02-08T03:26:28.726Z,92.80
2019-02-08T03:29:01.367Z,92.70
2019-02-08T03:31:34.002Z,92.81
2019-02-08T03:34:06.196Z,92.92
2019-02-08T03:36:38.751Z,92.88
2019-02-08T03:39:11.435Z,92.79
2019-02-08T03:41:44.128Z,92.77
2019-02-08T03:50:41.024Z,92.08
2019-02-08T03:53:14.074Z,91.85
2019-02-08T03:55:46.669Z,91.72
2019-02-08T03:58:19.334Z,91.94
2019-02-08T04:00:59.903Z,92.16
2019-02-08T04:03:32.586Z,92.37
2019-02-08T04:06:06.515Z,92.36
2019-02-08T04:08:42.523Z,92.65
2019-02-08T04:11:15.729Z,92.90
2019-02-08T04:13:48.395Z,92.85
2019-02-08T04:16:21.477Z,92.84
2019-02-08T04:18:54.164Z,92.71
2019-02-08T04:21:26.761Z,92.65
2019-02-08T04:23:59.537Z,92.77
2019-02-08T04:26:32.124Z,92.63
2019-02-08T04:29:04.887Z,92.57
2019-02-08T04:31:38.033Z,92.23
2019-02-08T04:34:10.623Z,92.25
2019-02-08T04:36:43.175Z,92.22
2019-02-08T04:39:15.761Z,92.41
2019-02-08T04:41:48.406Z,92.47
2019-02-08T04:44:20.946Z,92.33
2019-02-08T04:46:53.624Z,91.98
2019-02-08T04:49:26.451Z,91.81
2019-02-08T04:51:59.131Z,91.82
2019-02-08T04:54:38.086Z,91.68
2019-02-08T04:57:06.268Z,91.72
2019-02-08T04:59:39.060Z,91.70
2019-02-08T05:02:11.648Z,91.85
2019-02-08T05:04:44.492Z,91.87
2019-02-08T05:07:17.106Z,91.79
2019-02-08T05:09:49.823Z,91.46
2019-02-08T05:12:28.422Z,91.56
2019-02-08T05:15:01.010Z,91.49
2019-02-08T05:17:33.698Z,91.30
2019-02-08T05:20:08.328Z,91.48
2019-02-08T05:22:41.148Z,91.52
2019-02-08T05:25:14.605Z,91.59
2019-02-08T05:27:47.411Z,91.66
2019-02-08T05:30:33.578Z,91.67
2019-02-08T05:33:07.578Z,91.63
2019-02-08T05:35:40.198Z,91.91
2019-02-08T05:38:13.093Z,91.86
2019-02-08T05:40:45.700Z,91.67
2019-02-08T05:43:18.422Z,91.50
2019-02-08T05:45:51.101Z,92.08
2019-02-08T05:48:23.695Z,92.02
2019-02-08T05:50:56.505Z,91.82
2019-02-08T05:53:29.251Z,91.93
2019-02-08T05:56:01.911Z,92.24
2019-02-08T05:58:34.527Z,92.19
2019-02-08T06:01:07.162Z,91.98
2019-02-08T06:03:39.856Z,91.96
2019-02-08T06:06:12.614Z,92.07
2019-02-08T06:08:45.317Z,92.11
2019-02-08T06:11:18.702Z,92.05
2019-02-08T06:13:51.381Z,92.41
2019-02-08T06:16:24.172Z,92.67
2019-02-08T06:18:56.983Z,92.66
2019-02-08T06:21:29.689Z,92.60
2019-02-08T06:24:02.369Z,92.52
2019-02-08T06:26:35.118Z,92.21
2019-02-08T06:29:07.766Z,92.43
2019-02-08T06:31:40.815Z,92.03
2019-02-08T06:34:13.477Z,91.97
2019-02-08T06:36:46.274Z,92.21
2019-02-08T06:39:18.952Z,92.40
2019-02-08T06:41:51.821Z,92.28
2019-02-08T06:44:24.505Z,92.49
2019-02-08T06:46:56.556Z,92.40
2019-02-08T06:49:29.386Z,92.49
2019-02-08T06:52:02.186Z,92.49
2019-02-08T06:54:34.832Z,92.46
2019-02-08T06:57:44.824Z,92.40
2019-02-08T07:00:37.094Z,91.82
2019-02-08T07:03:23.895Z,92.36
2019-02-08T07:06:03.525Z,92.98
2019-02-08T07:08:42.448Z,92.84
2019-02-08T07:11:36.954Z,92.42
2019-02-08T07:14:32.135Z,92.34
2019-02-08T07:17:29.296Z,92.19
2019-02-08T07:20:16.096Z,92.21
2019-02-08T07:23:26.019Z,92.23
2019-02-08T07:26:29.582Z,92.19
2019-02-08T07:29:30.393Z,92.27
2019-02-08T07:32:26.100Z,92.25
2019-02-08T07:35:17.968Z,92.03
2019-02-08T07:38:02.788Z,91.74
2019-02-08T07:41:04.484Z,91.84
2019-02-08T07:44:02.966Z,91.93
2019-02-08T07:47:04.863Z,91.83
2019-02-08T07:50:14.309Z,91.88
2019-02-08T07:53:17.237Z,91.74
2019-02-08T07:56:23.441Z,90.93
2019-02-08T07:59:13.693Z,90.64
2019-02-08T08:02:07.382Z,90.46
2019-02-08T08:04:57.356Z,91.32
2019-02-08T08:07:56.356Z,90.92
2019-02-08T08:11:00.470Z,90.23
2019-02-08T08:13:50.885Z,82.96
2019-02-08T08:16:33.597Z,83.09
2019-02-08T08:19:29.155Z,80.07
2019-02-08T08:22:13.808Z,75.82
2019-02-08T08:25:11.298Z,73.25
2019-02-08T08:28:01.604Z,70.69
2019-02-08T08:30:52.235Z,66.89
2019-02-08T08:33:51.859Z,63.94
2019-02-08T08:37:09.049Z,60.74
2019-02-08T08:41:02.645Z,55.72
2019-02-08T08:44:38.636Z,55.57
2019-02-08T08:48:22.368Z,52.38
2019-02-08T08:51:52.161Z,48.46
2019-02-08T08:55:42.171Z,46.11
2019-02-08T08:59:11.515Z,49.32
2019-02-08T09:02:42.470Z,48.83
2019-02-08T09:06:20.067Z,48.17
2019-02-08T09:09:46.617Z,46.67
2019-02-08T09:13:33.297Z,42.84
2019-02-08T09:17:10.615Z,43.79
2019-02-08T09:20:40.682Z,47.87
2019-02-08T09:24:11.503Z,49.11
2019-02-08T09:27:39.542Z,49.44
2019-02-08T09:31:30.430Z,51.70
2019-02-08T09:34:58.146Z,52.39
2019-02-08T09:38:00.784Z,50.15
2019-02-08T09:41:17.202Z,51.73
2019-02-08T09:44:52.311Z,50.88
2019-02-08T09:48:43.587Z,49.98
2019-02-08T09:51:52.526Z,46.86
2019-02-08T09:55:10.794Z,42.17
2019-02-08T09:58:18.157Z,42.72
2019-02-08T10:01:42.227Z,41.98
2019-02-08T10:05:31.905Z,40.77
2019-02-08T10:08:55.603Z,38.62
2019-02-08T10:12:32.398Z,38.09
2019-02-08T10:16:16.748Z,39.43
2019-02-08T10:19:50.584Z,41.17
2019-02-08T10:23:26.404Z,42.11
2019-02-08T10:26:41.683Z,43.20
2019-02-08T10:30:25.472Z,43.91
2019-02-08T10:33:43.002Z,42.84
2019-02-08T10:37:03.964Z,42.56
2019-02-08T10:40:21.960Z,44.31
2019-02-08T10:44:05.838Z,47.31
2019-02-08T10:47:53.681Z,44.93
2019-02-08T10:51:23.499Z,43.86
2019-02-08T10:55:02.565Z,42.07
2019-02-08T10:58:33.310Z,41.22
2019-02-08T11:02:31.605Z,43.14
2019-02-08T11:06:11.874Z,43.46
2019-02-08T11:09:52.286Z,40.98
2019-02-08T11:13:31.462Z,39.33
2019-02-08T11:17:20.343Z,37.96
2019-02-08T11:19:57.888Z,38.96
2019-02-08T11:22:30.655Z,40.04
2019-02-08T11:25:07.757Z,38.84
2019-02-08T11:27:40.499Z,38.97
2019-02-08T11:30:16.998Z,35.07
2019-02-08T11:32:49.679Z,37.08
2019-02-08T11:35:22.375Z,35.82
2019-02-08T11:37:55.212Z,33.65
2019-02-08T11:40:30.389Z,31.86
2019-02-08T11:43:03.141Z,34.13
2019-02-08T11:45:35.884Z,32.90
2019-02-08T11:48:09.039Z,32.95
2019-02-08T11:50:41.816Z,35.20
2019-02-08T11:53:14.700Z,36.33
2019-02-08T11:55:48.814Z,35.76
2019-02-08T11:58:21.485Z,35.47
2019-02-08T12:00:56.041Z,34.23
2019-02-08T12:03:28.849Z,32.09
2019-02-08T12:06:01.603Z,34.19
2019-02-08T12:08:34.477Z,31.78
2019-02-08T12:11:07.143Z,33.44
2019-02-08T12:13:39.970Z,33.06
2019-02-08T12:16:12.950Z,36.77
2019-02-08T12:18:45.642Z,38.32
2019-02-08T12:21:18.422Z,38.15
2019-02-08T12:23:51.268Z,37.44
2019-02-08T12:26:23.872Z,38.17
2019-02-08T12:28:56.698Z,37.26
2019-02-08T12:31:29.428Z,36.54
2019-02-08T12:34:02.155Z,35.41
2019-02-08T12:36:35.037Z,34.50
2019-02-08T12:39:14.568Z,32.52
2019-02-08T12:41:47.211Z,33.28
2019-02-08T12:44:19.968Z,35.17
2019-02-08T12:46:52.656Z,36.27
2019-02-08T12:49:25.365Z,37.90
2019-02-08T12:51:58.078Z,39.11
2019-02-08T12:54:30.808Z,39.30
2019-02-08T12:57:04.483Z,40.33
2019-02-08T12:59:37.279Z,41.37
2019-02-08T13:02:10.250Z,45.86
2019-02-08T13:04:42.893Z,46.49
2019-02-08T13:07:15.778Z,47.90
2019-02-08T13:09:48.436Z,47.30
2019-02-08T13:12:21.683Z,48.18
2019-02-08T13:14:54.343Z,47.15
2019-02-08T13:17:27.329Z,47.64
2019-02-08T13:20:00.033Z,46.60
2019-02-08T13:22:32.704Z,47.05
2019-02-08T13:25:06.142Z,49.72
2019-02-08T13:27:38.841Z,49.46
2019-02-08T13:30:22.058Z,49.69
2019-02-08T13:32:54.931Z,50.28
2019-02-08T13:35:28.395Z,50.98
2019-02-08T13:38:01.541Z,51.58
2019-02-08T13:40:34.367Z,49.38
2019-02-08T13:43:06.950Z,50.65
2019-02-08T13:45:39.627Z,49.93
2019-02-08T13:48:12.538Z,50.93
2019-02-08T13:50:45.272Z,52.27
2019-02-08T13:53:18.039Z,51.48
2019-02-08T13:55:50.825Z,51.50
2019-02-08T13:58:23.570Z,50.82
2019-02-08T14:00:57.716Z,50.96
2019-02-08T14:03:30.462Z,48.81
2019-02-08T14:06:03.258Z,45.61
2019-02-08T14:08:36.158Z,45.56
2019-02-08T14:11:08.876Z,47.14
2019-02-08T14:13:41.645Z,47.71
2019-02-08T14:16:14.535Z,49.02
2019-02-08T14:18:50.106Z,49.77
2019-02-08T14:21:22.816Z,49.35
2019-02-08T14:23:55.427Z,46.79
2019-02-08T14:26:28.254Z,50.90
2019-02-08T14:29:01.116Z,47.60
2019-02-08T14:31:33.838Z,49.59
2019-02-08T14:34:07.355Z,49.03
2019-02-08T14:36:40.100Z,48.89
2019-02-08T14:39:13.154Z,50.07
2019-02-08T14:41:45.887Z,48.98
2019-02-08T14:44:18.755Z,49.29
2019-02-08T14:46:51.402Z,49.98
2019-02-08T14:49:24.139Z,49.29
2019-02-08T14:51:56.885Z,47.58
2019-02-08T14:54:29.561Z,54.35
2019-02-08T14:57:02.387Z,55.09
2019-02-08T14:59:35.339Z,56.47
2019-02-08T15:02:08.012Z,54.99
2019-02-08T15:04:40.952Z,54.75
2019-02-08T15:07:13.537Z,54.95
2019-02-08T15:09:46.363Z,56.86
2019-02-08T15:12:18.572Z,56.13
2019-02-08T15:14:51.218Z,55.87
2019-02-08T15:17:23.856Z,57.25
2019-02-08T15:19:57.895Z,58.39
2019-02-08T15:22:30.574Z,58.34
2019-02-08T15:25:03.853Z,58.23
2019-02-08T15:27:36.507Z,59.78
2019-02-08T15:30:12.131Z,61.52
2019-02-08T15:32:44.780Z,60.65
2019-02-08T15:35:20.044Z,60.30
2019-02-08T15:37:52.679Z,61.84
2019-02-08T15:40:45.039Z,60.47
2019-02-08T15:43:20.033Z,59.61
2019-02-08T15:45:59.575Z,60.39
2019-02-08T15:48:32.286Z,59.46
2019-02-08T15:51:05.319Z,60.36
2019-02-08T15:53:37.884Z,63.00
2019-02-08T15:56:15.129Z,64.55
2019-02-08T15:58:47.872Z,64.90
2019-02-08T16:01:21.205Z,65.57
2019-02-08T16:03:53.939Z,67.19
2019-02-08T16:06:26.696Z,67.60
2019-02-08T16:08:59.447Z,67.73
2019-02-08T16:11:32.087Z,65.03
2019-02-08T16:14:05.327Z,69.87
2019-02-08T16:16:38.307Z,69.18
2019-02-08T16:19:11.566Z,70.85
2019-02-08T16:21:44.210Z,70.18
2019-02-08T16:24:16.889Z,68.85
2019-02-08T16:26:49.567Z,70.98
2019-02-08T16:29:22.718Z,72.39
2019-02-08T16:31:55.416Z,72.21
2019-02-08T16:34:28.108Z,73.23
2019-02-08T16:37:03.542Z,74.23
2019-02-08T16:39:35.072Z,74.58
2019-02-08T16:42:08.024Z,73.73
2019-02-08T16:44:40.896Z,73.22
2019-02-08T16:47:13.481Z,72.46
2019-02-08T16:49:46.115Z,72.96
2019-02-08T16:52:18.692Z,74.23
2019-02-08T16:54:51.355Z,74.95
2019-02-08T16:57:24.120Z,75.99
2019-02-08T16:59:56.703Z,76.04
2019-02-08T17:02:29.479Z,74.76
2019-02-08T17:05:02.212Z,74.98
2019-02-08T17:07:34.770Z,74.40
2019-02-08T17:10:10.442Z,74.31
2019-02-08T17:12:43.023Z,74.55
2019-02-08T17:15:20.134Z,75.44
2019-02-08T17:17:52.771Z,75.55
2019-02-08T17:20:31.771Z,75.53
2019-02-08T17:23:04.758Z,75.85
2019-02-08T17:25:37.427Z,75.62
2019-02-08T17:28:11.700Z,76.56
2019-02-08T17:30:44.330Z,75.63
2019-02-08T17:33:16.892Z,75.42
2019-02-08T17:35:50.345Z,74.45
2019-02-08T17:38:23.001Z,74.52
2019-02-08T17:40:55.693Z,73.32
2019-02-08T17:43:28.271Z,72.96
2019-02-08T17:46:00.980Z,72.19
2019-02-08T17:48:33.568Z,72.78
2019-02-08T17:51:06.505Z,72.73
2019-02-08T17:53:39.187Z,71.37
2019-02-08T17:56:11.923Z,72.92
2019-02-08T17:58:44.513Z,73.08
2019-02-08T18:01:17.118Z,71.56
2019-02-08T18:03:49.688Z,71.33
2019-02-08T18:06:22.291Z,71.02
2019-02-08T18:08:54.900Z,72.25
2019-02-08T18:11:27.573Z,72.26
2019-02-08T18:14:00.160Z,72.15
2019-02-08T18:16:32.965Z,71.67
2019-02-08T18:19:05.775Z,70.98
2019-02-08T18:21:38.524Z,70.71
2019-02-08T18:24:11.486Z,70.95
2019-02-08T18:26:44.132Z,71.45
2019-02-08T18:29:18.614Z,71.34
2019-02-08T18:31:51.683Z,70.84
2019-02-08T18:34:24.429Z,71.22
2019-02-08T18:36:57.116Z,72.56
2019-02-08T18:39:29.784Z,73.96
2019-02-08T18:42:02.563Z,74.56
2019-02-08T18:44:35.113Z,74.63
2019-02-08T18:47:07.737Z,74.16
2019-02-08T18:49:40.576Z,74.77
2019-02-08T18:52:13.244Z,73.02
2019-02-08T18:54:45.937Z,71.85
2019-02-08T18:57:18.575Z,74.11
2019-02-08T18:59:51.297Z,73.85
2019-02-08T19:02:23.948Z,72.79
2019-02-08T19:04:56.552Z,72.24
2019-02-08T19:07:29.185Z,72.76
2019-02-08T19:10:01.782Z,72.46
2019-02-08T19:12:33.581Z,73.17
2019-02-08T19:15:08.301Z,73.51
2019-02-08T19:17:41.033Z,72.96
2019-02-08T19:20:16.506Z,71.88
2019-02-08T19:22:49.175Z,71.96
2019-02-08T19:25:25.941Z,70.30
2019-02-08T19:27:58.633Z,72.61
2019-02-08T19:30:34.725Z,72.42
2019-02-08T19:33:08.131Z,70.51
2019-02-08T19:35:40.826Z,71.10
2019-02-08T19:38:13.477Z,70.85
2019-02-08T19:40:47.191Z,67.78
2019-02-08T19:43:19.893Z,70.12
2019-02-08T19:45:52.490Z,69.50
2019-02-08T19:48:25.225Z,71.05
2019-02-08T19:50:57.842Z,68.02
2019-02-08T19:53:30.547Z,64.15
2019-02-08T19:56:03.256Z,67.93
2019-02-08T19:58:35.970Z,67.02
2019-02-08T20:01:08.704Z,65.20
2019-02-08T20:03:41.396Z,63.43
2019-02-08T20:06:14.209Z,63.03
2019-02-08T20:08:47.746Z,62.16
2019-02-08T20:11:20.408Z,63.00
2019-02-08T20:13:53.053Z,62.56
2019-02-08T20:16:25.805Z,62.97
2019-02-08T20:18:58.802Z,63.87
2019-02-08T20:21:31.568Z,62.86
2019-02-08T20:24:04.367Z,61.97
2019-02-08T20:26:36.936Z,61.07
2019-02-08T20:29:09.541Z,57.97
2019-02-08T20:31:42.244Z,59.23
2019-02-08T20:34:15.059Z,59.25
2019-02-08T20:36:47.882Z,60.29
2019-02-08T20:39:20.592Z,60.35
2019-02-08T20:41:53.316Z,61.55
2019-02-08T20:44:25.939Z,62.95
2019-02-08T20:46:58.683Z,61.60
2019-02-08T20:49:31.331Z,60.48
2019-02-08T20:52:03.989Z,60.44
2019-02-08T20:54:36.542Z,59.76
2019-02-08T20:57:09.546Z,58.66
2019-02-08T20:59:42.225Z,58.61
2019-02-08T21:02:15.162Z,58.74
2019-02-08T21:04:47.909Z,56.94
2019-02-08T21:07:20.569Z,60.16
2019-02-08T21:09:53.252Z,62.00
2019-02-08T21:12:25.806Z,61.61
2019-02-08T21:14:58.401Z,59.82
2019-02-08T21:17:31.170Z,58.68
2019-02-08T21:20:04.319Z,57.42
2019-02-08T21:22:37.018Z,60.43
2019-02-08T21:25:11.880Z,60.62
2019-02-08T21:27:44.530Z,60.91
2019-02-08T21:30:18.106Z,61.58
2019-02-08T21:32:51.892Z,60.66
2019-02-08T21:35:24.840Z,58.65
2019-02-08T21:37:57.437Z,61.72
2019-02-08T21:40:30.207Z,60.76
2019-02-08T21:43:02.828Z,61.51
2019-02-08T21:45:36.466Z,61.52
2019-02-08T21:48:10.852Z,62.58
2019-02-08T21:50:43.920Z,62.43
2019-02-08T21:53:16.692Z,59.82
2019-02-08T21:55:49.419Z,59.41
2019-02-08T21:58:22.062Z,59.02
2019-02-08T22:00:54.674Z,58.95
2019-02-08T22:03:27.226Z,57.56
2019-02-08T22:06:07.343Z,57.75
2019-02-08T22:08:39.982Z,57.38
2019-02-08T22:11:12.694Z,57.50
2019-02-08T22:13:45.446Z,56.04
2019-02-08T22:16:18.182Z,52.95
2019-02-08T22:18:50.769Z,53.61
2019-02-08T22:21:23.361Z,48.48
2019-02-08T22:23:55.895Z,47.25
2019-02-08T22:26:28.546Z,48.55
2019-02-08T22:29:01.365Z,50.00
2019-02-08T22:31:34.146Z,51.81
2019-02-08T22:34:06.950Z,51.60
2019-02-08T22:36:39.635Z,51.35
2019-02-08T22:39:12.356Z,52.99
2019-02-08T22:41:44.943Z,49.49
2019-02-08T22:44:17.526Z,50.76
2019-02-08T22:46:50.276Z,51.21
2019-02-08T22:49:22.834Z,50.55
2019-02-08T22:51:55.450Z,53.68
2019-02-08T22:54:28.034Z,53.58
2019-02-08T22:57:00.808Z,54.37
2019-02-08T22:59:33.582Z,54.24
2019-02-08T23:02:08.731Z,53.46
2019-02-08T23:04:41.511Z,52.59
2019-02-08T23:07:14.147Z,49.62
2019-02-08T23:09:46.789Z,50.10
2019-02-08T23:12:19.471Z,45.14
2019-02-08T23:14:52.455Z,43.09
2019-02-08T23:17:25.144Z,41.17
2019-02-08T23:19:58.061Z,40.52
2019-02-08T23:22:30.853Z,39.99
2019-02-08T23:25:03.657Z,40.36
2019-02-08T23:27:36.385Z,41.37
2019-02-08T23:30:11.567Z,42.55
2019-02-08T23:32:44.349Z,43.91
2019-02-08T23:35:17.244Z,43.96
2019-02-08T23:37:50.011Z,43.56
2019-02-08T23:40:22.721Z,45.72
2019-02-08T23:42:55.456Z,43.78
2019-02-08T23:45:28.442Z,44.03
2019-02-08T23:48:01.241Z,42.38
2019-02-08T23:50:33.946Z,40.22
2019-02-08T23:53:09.749Z,44.53
2019-02-08T23:55:42.720Z,41.80
2019-02-08T23:58:15.410Z,43.22
